sensor_id;sensor_type;location;lat;lon;timestamp;temperature;humidity
62581;DHT22;48640;48.770;9.148;2023-01-29T00:00:20;2.30;92.80
62581;DHT22;48640;48.770;9.148;2023-01-29T00:02:47;2.30;92.60
62581;DHT22;48640;48.770;9.148;2023-01-29T00:05:14;2.30;92.60
62581;DHT22;48640;48.770;9.148;2023-01-29T00:07:42;2.30;92.60
62581;DHT22;48640;48.770;9.148;2023-01-29T00:10:10;2.30;92.60
62581;DHT22;48640;48.770;9.148;2023-01-29T00:12:37;2.30;92.80
62581;DHT22;48640;48.770;9.148;2023-01-29T00:15:05;2.20;92.40
62581;DHT22;48640;48.770;9.148;2023-01-29T00:17:32;2.20;92.40
62581;DHT22;48640;48.770;9.148;2023-01-29T00:19:59;2.20;92.60
62581;DHT22;48640;48.770;9.148;2023-01-29T00:22:26;2.10;92.60
62581;DHT22;48640;48.770;9.148;2023-01-29T00:24:54;2.20;92.70
62581;DHT22;48640;48.770;9.148;2023-01-29T00:27:21;2.10;92.70
62581;DHT22;48640;48.770;9.148;2023-01-29T00:29:47;2.20;92.70
62581;DHT22;48640;48.770;9.148;2023-01-29T00:32:33;2.20;92.70
62581;DHT22;48640;48.770;9.148;2023-01-29T00:35:00;2.20;92.30
62581;DHT22;48640;48.770;9.148;2023-01-29T00:37:27;2.20;92.60
62581;DHT22;48640;48.770;9.148;2023-01-29T00:39:55;2.20;92.70
62581;DHT22;48640;48.770;9.148;2023-01-29T00:42:28;2.20;92.40
62581;DHT22;48640;48.770;9.148;2023-01-29T00:45:12;2.30;92.50
62581;DHT22;48640;48.770;9.148;2023-01-29T00:47:39;2.30;92.50
62581;DHT22;48640;48.770;9.148;2023-01-29T00:50:08;2.10;92.40
62581;DHT22;48640;48.770;9.148;2023-01-29T00:52:35;2.10;92.30
62581;DHT22;48640;48.770;9.148;2023-01-29T00:55:05;2.10;92.30
62581;DHT22;48640;48.770;9.148;2023-01-29T00:57:33;2.00;92.40
62581;DHT22;48640;48.770;9.148;2023-01-29T01:00:00;2.00;92.60
62581;DHT22;48640;48.770;9.148;2023-01-29T01:02:27;2.10;92.60
62581;DHT22;48640;48.770;9.148;2023-01-29T01:05:13;2.00;92.60
62581;DHT22;48640;48.770;9.148;2023-01-29T01:07:42;2.00;92.50
62581;DHT22;48640;48.770;9.148;2023-01-29T01:10:13;2.00;92.60
62581;DHT22;48640;48.770;9.148;2023-01-29T01:12:50;2.00;92.60
62581;DHT22;48640;48.770;9.148;2023-01-29T01:15:18;1.90;92.70
62581;DHT22;48640;48.770;9.148;2023-01-29T01:17:45;1.90;92.80
62581;DHT22;48640;48.770;9.148;2023-01-29T01:20:13;1.90;92.70
62581;DHT22;48640;48.770;9.148;2023-01-29T01:22:40;1.90;92.90
62581;DHT22;48640;48.770;9.148;2023-01-29T01:25:07;2.00;93.10
62581;DHT22;48640;48.770;9.148;2023-01-29T01:27:36;1.90;93.00
62581;DHT22;48640;48.770;9.148;2023-01-29T01:30:08;1.80;92.80
62581;DHT22;48640;48.770;9.148;2023-01-29T01:32:35;1.80;92.80
62581;DHT22;48640;48.770;9.148;2023-01-29T01:35:02;1.70;92.70
62581;DHT22;48640;48.770;9.148;2023-01-29T01:37:29;1.70;92.90
62581;DHT22;48640;48.770;9.148;2023-01-29T01:39:56;1.70;93.00
62581;DHT22;48640;48.770;9.148;2023-01-29T01:42:27;1.90;93.10
62581;DHT22;48640;48.770;9.148;2023-01-29T01:44:58;2.00;93.00
62581;DHT22;48640;48.770;9.148;2023-01-29T01:47:32;1.90;92.80
62581;DHT22;48640;48.770;9.148;2023-01-29T01:50:02;2.00;92.80
62581;DHT22;48640;48.770;9.148;2023-01-29T01:52:32;2.10;92.60
62581;DHT22;48640;48.770;9.148;2023-01-29T01:55:02;2.00;92.50
62581;DHT22;48640;48.770;9.148;2023-01-29T01:57:30;1.80;92.70
62581;DHT22;48640;48.770;9.148;2023-01-29T02:00:03;1.80;92.70
62581;DHT22;48640;48.770;9.148;2023-01-29T02:02:35;1.70;93.20
62581;DHT22;48640;48.770;9.148;2023-01-29T02:05:19;1.60;93.10
62581;DHT22;48640;48.770;9.148;2023-01-29T02:08:04;1.40;93.40
62581;DHT22;48640;48.770;9.148;2023-01-29T02:10:48;1.40;93.40
62581;DHT22;48640;48.770;9.148;2023-01-29T02:13:15;1.30;93.60
62581;DHT22;48640;48.770;9.148;2023-01-29T02:15:44;1.30;93.70
62581;DHT22;48640;48.770;9.148;2023-01-29T02:18:14;1.30;93.60
62581;DHT22;48640;48.770;9.148;2023-01-29T02:20:46;1.40;93.30
62581;DHT22;48640;48.770;9.148;2023-01-29T02:23:37;1.30;93.00
62581;DHT22;48640;48.770;9.148;2023-01-29T02:26:24;1.40;93.00
62581;DHT22;48640;48.770;9.148;2023-01-29T02:29:00;1.50;93.00
62581;DHT22;48640;48.770;9.148;2023-01-29T02:31:53;1.50;93.20
62581;DHT22;48640;48.770;9.148;2023-01-29T02:34:28;1.40;92.90
62581;DHT22;48640;48.770;9.148;2023-01-29T02:37:17;1.50;92.60
62581;DHT22;48640;48.770;9.148;2023-01-29T02:39:52;1.60;92.70
62581;DHT22;48640;48.770;9.148;2023-01-29T02:42:25;1.60;92.70
62581;DHT22;48640;48.770;9.148;2023-01-29T02:44:57;1.60;92.70
62581;DHT22;48640;48.770;9.148;2023-01-29T02:47:29;1.40;92.90
62581;DHT22;48640;48.770;9.148;2023-01-29T02:50:04;1.20;93.30
62581;DHT22;48640;48.770;9.148;2023-01-29T02:52:36;1.20;93.00
62581;DHT22;48640;48.770;9.148;2023-01-29T02:55:09;1.20;93.00
62581;DHT22;48640;48.770;9.148;2023-01-29T02:57:41;1.40;93.10
62581;DHT22;48640;48.770;9.148;2023-01-29T03:02:42;1.50;92.80
62581;DHT22;48640;48.770;9.148;2023-01-29T03:05:15;1.60;92.70
62581;DHT22;48640;48.770;9.148;2023-01-29T03:07:47;1.60;92.50
62581;DHT22;48640;48.770;9.148;2023-01-29T03:10:20;1.70;92.50
62581;DHT22;48640;48.770;9.148;2023-01-29T03:12:52;1.90;92.40
62581;DHT22;48640;48.770;9.148;2023-01-29T03:15:25;1.90;92.20
62581;DHT22;48640;48.770;9.148;2023-01-29T03:17:57;1.90;91.90
62581;DHT22;48640;48.770;9.148;2023-01-29T03:20:29;1.80;91.80
62581;DHT22;48640;48.770;9.148;2023-01-29T03:23:02;1.80;91.90
62581;DHT22;48640;48.770;9.148;2023-01-29T03:25:31;1.80;92.00
62581;DHT22;48640;48.770;9.148;2023-01-29T03:28:19;1.80;92.10
62581;DHT22;48640;48.770;9.148;2023-01-29T03:31:08;1.80;91.90
62581;DHT22;48640;48.770;9.148;2023-01-29T03:33:58;1.90;91.90
62581;DHT22;48640;48.770;9.148;2023-01-29T03:36:31;1.90;91.80
62581;DHT22;48640;48.770;9.148;2023-01-29T03:39:03;1.90;92.00
62581;DHT22;48640;48.770;9.148;2023-01-29T03:41:33;1.80;91.60
62581;DHT22;48640;48.770;9.148;2023-01-29T03:44:09;1.60;92.00
62581;DHT22;48640;48.770;9.148;2023-01-29T03:46:44;1.70;92.10
62581;DHT22;48640;48.770;9.148;2023-01-29T03:49:18;1.70;92.20
62581;DHT22;48640;48.770;9.148;2023-01-29T03:51:54;1.80;92.10
62581;DHT22;48640;48.770;9.148;2023-01-29T03:54:27;1.80;91.70
62581;DHT22;48640;48.770;9.148;2023-01-29T03:57:01;1.60;91.70
62581;DHT22;48640;48.770;9.148;2023-01-29T03:59:35;1.50;91.90
62581;DHT22;48640;48.770;9.148;2023-01-29T04:02:09;1.40;92.30
62581;DHT22;48640;48.770;9.148;2023-01-29T04:04:40;1.50;92.10
62581;DHT22;48640;48.770;9.148;2023-01-29T04:07:09;1.50;92.30
62581;DHT22;48640;48.770;9.148;2023-01-29T04:09:41;1.70;92.30
62581;DHT22;48640;48.770;9.148;2023-01-29T04:12:11;1.70;92.10
62581;DHT22;48640;48.770;9.148;2023-01-29T04:14:39;1.80;91.90
62581;DHT22;48640;48.770;9.148;2023-01-29T04:17:11;1.70;91.80
62581;DHT22;48640;48.770;9.148;2023-01-29T04:19:40;1.60;91.90
62581;DHT22;48640;48.770;9.148;2023-01-29T04:22:12;1.60;92.00
62581;DHT22;48640;48.770;9.148;2023-01-29T04:24:41;1.70;92.10
62581;DHT22;48640;48.770;9.148;2023-01-29T04:27:22;1.70;91.80
62581;DHT22;48640;48.770;9.148;2023-01-29T04:29:59;1.70;91.80
62581;DHT22;48640;48.770;9.148;2023-01-29T04:32:40;1.80;91.60
62581;DHT22;48640;48.770;9.148;2023-01-29T04:35:20;1.70;91.30
62581;DHT22;48640;48.770;9.148;2023-01-29T04:37:56;1.70;91.70
62581;DHT22;48640;48.770;9.148;2023-01-29T04:40:32;1.80;92.10
62581;DHT22;48640;48.770;9.148;2023-01-29T04:43:05;1.70;92.00
62581;DHT22;48640;48.770;9.148;2023-01-29T04:45:39;1.50;92.10
62581;DHT22;48640;48.770;9.148;2023-01-29T04:48:18;1.50;92.10
62581;DHT22;48640;48.770;9.148;2023-01-29T04:50:55;1.40;92.20
62581;DHT22;48640;48.770;9.148;2023-01-29T04:53:26;1.40;92.20
62581;DHT22;48640;48.770;9.148;2023-01-29T04:55:58;1.50;92.20
62581;DHT22;48640;48.770;9.148;2023-01-29T04:58:31;1.30;92.30
62581;DHT22;48640;48.770;9.148;2023-01-29T05:00:59;1.00;92.60
62581;DHT22;48640;48.770;9.148;2023-01-29T05:03:28;1.00;93.00
62581;DHT22;48640;48.770;9.148;2023-01-29T05:05:58;1.00;92.80
62581;DHT22;48640;48.770;9.148;2023-01-29T05:08:27;0.90;92.70
62581;DHT22;48640;48.770;9.148;2023-01-29T05:10:57;1.00;93.20
62581;DHT22;48640;48.770;9.148;2023-01-29T05:13:25;1.10;93.10
62581;DHT22;48640;48.770;9.148;2023-01-29T05:15:56;1.30;92.40
62581;DHT22;48640;48.770;9.148;2023-01-29T05:18:25;1.40;92.30
62581;DHT22;48640;48.770;9.148;2023-01-29T05:20:56;1.50;92.00
62581;DHT22;48640;48.770;9.148;2023-01-29T05:23:23;1.50;91.90
62581;DHT22;48640;48.770;9.148;2023-01-29T05:25:50;1.60;91.60
62581;DHT22;48640;48.770;9.148;2023-01-29T05:28:17;1.60;91.50
62581;DHT22;48640;48.770;9.148;2023-01-29T05:30:44;1.60;91.60
62581;DHT22;48640;48.770;9.148;2023-01-29T05:33:13;1.50;91.40
62581;DHT22;48640;48.770;9.148;2023-01-29T05:35:41;1.40;91.40
62581;DHT22;48640;48.770;9.148;2023-01-29T05:38:09;1.40;91.80
62581;DHT22;48640;48.770;9.148;2023-01-29T05:40:36;1.40;91.90
62581;DHT22;48640;48.770;9.148;2023-01-29T05:43:04;1.60;91.80
62581;DHT22;48640;48.770;9.148;2023-01-29T05:45:31;1.60;91.60
62581;DHT22;48640;48.770;9.148;2023-01-29T05:47:59;1.50;91.60
62581;DHT22;48640;48.770;9.148;2023-01-29T05:50:26;1.30;91.50
62581;DHT22;48640;48.770;9.148;2023-01-29T05:52:57;1.30;91.70
62581;DHT22;48640;48.770;9.148;2023-01-29T05:55:25;1.30;91.80
62581;DHT22;48640;48.770;9.148;2023-01-29T05:57:54;1.30;91.80
62581;DHT22;48640;48.770;9.148;2023-01-29T06:00:21;1.40;91.90
62581;DHT22;48640;48.770;9.148;2023-01-29T06:02:48;1.50;92.00
62581;DHT22;48640;48.770;9.148;2023-01-29T06:05:14;1.50;91.70
62581;DHT22;48640;48.770;9.148;2023-01-29T06:07:41;1.60;91.20
62581;DHT22;48640;48.770;9.148;2023-01-29T06:10:10;1.50;91.20
62581;DHT22;48640;48.770;9.148;2023-01-29T06:12:39;1.60;91.30
62581;DHT22;48640;48.770;9.148;2023-01-29T06:15:06;1.50;91.20
62581;DHT22;48640;48.770;9.148;2023-01-29T06:17:33;1.50;91.40
62581;DHT22;48640;48.770;9.148;2023-01-29T06:20:00;1.50;91.20
62581;DHT22;48640;48.770;9.148;2023-01-29T06:22:27;1.40;91.40
62581;DHT22;48640;48.770;9.148;2023-01-29T06:24:54;1.40;91.80
62581;DHT22;48640;48.770;9.148;2023-01-29T06:27:21;1.30;91.80
62581;DHT22;48640;48.770;9.148;2023-01-29T06:29:49;1.50;91.80
62581;DHT22;48640;48.770;9.148;2023-01-29T06:32:16;1.60;91.70
62581;DHT22;48640;48.770;9.148;2023-01-29T06:34:42;1.70;91.40
62581;DHT22;48640;48.770;9.148;2023-01-29T06:37:09;1.60;91.30
62581;DHT22;48640;48.770;9.148;2023-01-29T06:39:36;1.50;91.30
62581;DHT22;48640;48.770;9.148;2023-01-29T06:42:03;1.50;91.60
62581;DHT22;48640;48.770;9.148;2023-01-29T06:44:29;1.40;91.30
62581;DHT22;48640;48.770;9.148;2023-01-29T06:46:57;1.60;91.50
62581;DHT22;48640;48.770;9.148;2023-01-29T06:49:24;1.40;91.40
62581;DHT22;48640;48.770;9.148;2023-01-29T06:51:51;1.50;91.80
62581;DHT22;48640;48.770;9.148;2023-01-29T06:54:18;1.50;91.40
62581;DHT22;48640;48.770;9.148;2023-01-29T06:56:44;1.70;91.50
62581;DHT22;48640;48.770;9.148;2023-01-29T06:59:11;1.70;91.50
62581;DHT22;48640;48.770;9.148;2023-01-29T07:01:38;1.80;91.30
62581;DHT22;48640;48.770;9.148;2023-01-29T07:04:07;1.70;91.10
62581;DHT22;48640;48.770;9.148;2023-01-29T07:06:34;1.80;91.40
62581;DHT22;48640;48.770;9.148;2023-01-29T07:09:01;1.80;91.10
62581;DHT22;48640;48.770;9.148;2023-01-29T07:11:28;1.80;91.10
62581;DHT22;48640;48.770;9.148;2023-01-29T07:13:55;1.70;91.00
62581;DHT22;48640;48.770;9.148;2023-01-29T07:16:21;1.80;91.20
62581;DHT22;48640;48.770;9.148;2023-01-29T07:18:49;1.60;91.40
62581;DHT22;48640;48.770;9.148;2023-01-29T07:21:17;1.60;91.60
62581;DHT22;48640;48.770;9.148;2023-01-29T07:23:44;1.50;91.70
62581;DHT22;48640;48.770;9.148;2023-01-29T07:26:11;1.60;91.90
62581;DHT22;48640;48.770;9.148;2023-01-29T07:28:38;1.60;91.90
62581;DHT22;48640;48.770;9.148;2023-01-29T07:31:06;1.70;91.60
62581;DHT22;48640;48.770;9.148;2023-01-29T07:33:33;1.80;91.40
62581;DHT22;48640;48.770;9.148;2023-01-29T07:36:00;1.90;91.30
62581;DHT22;48640;48.770;9.148;2023-01-29T07:38:28;1.80;91.20
62581;DHT22;48640;48.770;9.148;2023-01-29T07:40:55;1.80;91.50
62581;DHT22;48640;48.770;9.148;2023-01-29T07:43:21;1.80;91.40
62581;DHT22;48640;48.770;9.148;2023-01-29T07:45:49;1.90;91.40
62581;DHT22;48640;48.770;9.148;2023-01-29T07:48:16;2.00;91.30
62581;DHT22;48640;48.770;9.148;2023-01-29T07:50:43;2.10;91.10
62581;DHT22;48640;48.770;9.148;2023-01-29T07:53:12;2.10;90.80
62581;DHT22;48640;48.770;9.148;2023-01-29T07:55:42;2.10;90.80
62581;DHT22;48640;48.770;9.148;2023-01-29T07:58:09;2.10;90.90
62581;DHT22;48640;48.770;9.148;2023-01-29T08:00:36;2.20;90.80
62581;DHT22;48640;48.770;9.148;2023-01-29T08:03:04;1.90;90.90
62581;DHT22;48640;48.770;9.148;2023-01-29T08:05:31;1.80;91.20
62581;DHT22;48640;48.770;9.148;2023-01-29T08:07:58;1.80;91.10
62581;DHT22;48640;48.770;9.148;2023-01-29T08:10:25;2.00;91.00
62581;DHT22;48640;48.770;9.148;2023-01-29T08:12:58;2.10;91.10
62581;DHT22;48640;48.770;9.148;2023-01-29T08:15:25;2.10;90.80
62581;DHT22;48640;48.770;9.148;2023-01-29T08:17:53;2.10;90.80
62581;DHT22;48640;48.770;9.148;2023-01-29T08:20:20;2.30;90.60
62581;DHT22;48640;48.770;9.148;2023-01-29T08:22:47;2.30;90.70
62581;DHT22;48640;48.770;9.148;2023-01-29T08:25:14;2.30;90.60
62581;DHT22;48640;48.770;9.148;2023-01-29T08:27:41;2.30;90.80
62581;DHT22;48640;48.770;9.148;2023-01-29T08:30:11;2.30;90.60
62581;DHT22;48640;48.770;9.148;2023-01-29T08:32:37;2.30;90.40
62581;DHT22;48640;48.770;9.148;2023-01-29T08:35:05;2.30;90.20
62581;DHT22;48640;48.770;9.148;2023-01-29T08:37:32;2.50;90.40
62581;DHT22;48640;48.770;9.148;2023-01-29T08:39:58;2.10;89.70
62581;DHT22;48640;48.770;9.148;2023-01-29T08:42:25;1.80;90.50
62581;DHT22;48640;48.770;9.148;2023-01-29T08:44:52;2.00;90.80
62581;DHT22;48640;48.770;9.148;2023-01-29T08:47:20;2.20;90.50
62581;DHT22;48640;48.770;9.148;2023-01-29T08:49:47;2.40;90.10
62581;DHT22;48640;48.770;9.148;2023-01-29T08:52:13;2.40;90.00
62581;DHT22;48640;48.770;9.148;2023-01-29T08:54:40;2.40;90.10
62581;DHT22;48640;48.770;9.148;2023-01-29T08:57:07;2.40;89.90
62581;DHT22;48640;48.770;9.148;2023-01-29T08:59:34;2.40;89.90
62581;DHT22;48640;48.770;9.148;2023-01-29T09:02:00;2.40;89.40
62581;DHT22;48640;48.770;9.148;2023-01-29T09:04:28;2.40;88.40
62581;DHT22;48640;48.770;9.148;2023-01-29T09:06:55;2.50;88.70
62581;DHT22;48640;48.770;9.148;2023-01-29T09:09:22;2.50;87.80
62581;DHT22;48640;48.770;9.148;2023-01-29T09:11:48;2.40;88.20
62581;DHT22;48640;48.770;9.148;2023-01-29T09:14:15;2.40;88.60
62581;DHT22;48640;48.770;9.148;2023-01-29T09:16:42;2.60;89.10
62581;DHT22;48640;48.770;9.148;2023-01-29T09:19:09;2.70;88.50
62581;DHT22;48640;48.770;9.148;2023-01-29T09:21:37;2.70;87.60
62581;DHT22;48640;48.770;9.148;2023-01-29T09:24:04;2.90;87.30
62581;DHT22;48640;48.770;9.148;2023-01-29T09:26:31;3.00;86.40
62581;DHT22;48640;48.770;9.148;2023-01-29T09:28:58;2.90;85.70
62581;DHT22;48640;48.770;9.148;2023-01-29T09:31:25;3.00;85.60
62581;DHT22;48640;48.770;9.148;2023-01-29T09:33:51;3.10;85.50
62581;DHT22;48640;48.770;9.148;2023-01-29T09:36:18;3.10;84.70
62581;DHT22;48640;48.770;9.148;2023-01-29T09:38:46;3.10;85.20
62581;DHT22;48640;48.770;9.148;2023-01-29T09:41:25;3.10;85.30
62581;DHT22;48640;48.770;9.148;2023-01-29T09:43:56;3.00;85.70
62581;DHT22;48640;48.770;9.148;2023-01-29T09:46:30;3.20;85.70
62581;DHT22;48640;48.770;9.148;2023-01-29T09:49:01;3.20;85.20
62581;DHT22;48640;48.770;9.148;2023-01-29T09:51:33;3.40;85.80
62581;DHT22;48640;48.770;9.148;2023-01-29T09:54:12;2.90;83.90
62581;DHT22;48640;48.770;9.148;2023-01-29T09:56:41;2.50;85.70
62581;DHT22;48640;48.770;9.148;2023-01-29T09:59:11;2.50;86.70
62581;DHT22;48640;48.770;9.148;2023-01-29T10:01:44;2.50;87.00
62581;DHT22;48640;48.770;9.148;2023-01-29T10:04:40;2.80;86.40
62581;DHT22;48640;48.770;9.148;2023-01-29T10:07:53;3.20;85.50
62581;DHT22;48640;48.770;9.148;2023-01-29T10:10:31;3.70;83.60
62581;DHT22;48640;48.770;9.148;2023-01-29T10:13:06;3.80;82.00
62581;DHT22;48640;48.770;9.148;2023-01-29T10:15:48;3.80;81.30
62581;DHT22;48640;48.770;9.148;2023-01-29T10:18:40;3.60;80.80
62581;DHT22;48640;48.770;9.148;2023-01-29T10:21:23;3.40;83.00
62581;DHT22;48640;48.770;9.148;2023-01-29T10:23:59;3.90;82.50
62581;DHT22;48640;48.770;9.148;2023-01-29T10:26:28;4.10;80.30
62581;DHT22;48640;48.770;9.148;2023-01-29T10:29:00;4.30;79.60
62581;DHT22;48640;48.770;9.148;2023-01-29T10:31:30;4.50;80.20
62581;DHT22;48640;48.770;9.148;2023-01-29T10:34:00;4.80;79.10
62581;DHT22;48640;48.770;9.148;2023-01-29T10:36:33;5.00;77.40
62581;DHT22;48640;48.770;9.148;2023-01-29T10:39:00;5.10;76.50
62581;DHT22;48640;48.770;9.148;2023-01-29T10:41:45;5.20;76.00
62581;DHT22;48640;48.770;9.148;2023-01-29T10:44:23;5.10;74.90
62581;DHT22;48640;48.770;9.148;2023-01-29T10:47:12;5.10;74.50
62581;DHT22;48640;48.770;9.148;2023-01-29T10:49:58;4.90;75.50
62581;DHT22;48640;48.770;9.148;2023-01-29T10:52:38;4.30;75.00
62581;DHT22;48640;48.770;9.148;2023-01-29T10:55:21;3.80;77.30
62581;DHT22;48640;48.770;9.148;2023-01-29T10:58:00;3.00;79.80
62581;DHT22;48640;48.770;9.148;2023-01-29T11:00:35;2.90;82.10
62581;DHT22;48640;48.770;9.148;2023-01-29T11:03:13;3.10;83.00
62581;DHT22;48640;48.770;9.148;2023-01-29T11:05:44;3.70;82.30
62581;DHT22;48640;48.770;9.148;2023-01-29T11:08:15;3.70;79.80
62581;DHT22;48640;48.770;9.148;2023-01-29T11:10:48;3.50;79.80
62581;DHT22;48640;48.770;9.148;2023-01-29T11:13:19;3.50;82.00
62581;DHT22;48640;48.770;9.148;2023-01-29T11:15:50;3.90;81.40
62581;DHT22;48640;48.770;9.148;2023-01-29T11:18:18;4.20;80.10
62581;DHT22;48640;48.770;9.148;2023-01-29T11:20:45;4.60;79.30
62581;DHT22;48640;48.770;9.148;2023-01-29T11:23:28;4.90;78.80
62581;DHT22;48640;48.770;9.148;2023-01-29T11:25:56;5.10;76.10
62581;DHT22;48640;48.770;9.148;2023-01-29T11:28:38;5.20;75.30
62581;DHT22;48640;48.770;9.148;2023-01-29T11:31:19;5.00;75.00
62581;DHT22;48640;48.770;9.148;2023-01-29T11:33:47;5.20;74.60
62581;DHT22;48640;48.770;9.148;2023-01-29T11:36:35;5.30;74.40
62581;DHT22;48640;48.770;9.148;2023-01-29T11:39:14;5.30;73.50
62581;DHT22;48640;48.770;9.148;2023-01-29T11:41:43;5.20;74.00
62581;DHT22;48640;48.770;9.148;2023-01-29T11:44:20;5.20;74.20
62581;DHT22;48640;48.770;9.148;2023-01-29T11:46:47;5.30;73.50
62581;DHT22;48640;48.770;9.148;2023-01-29T11:49:30;5.00;73.50
62581;DHT22;48640;48.770;9.148;2023-01-29T11:51:59;5.10;73.90
62581;DHT22;48640;48.770;9.148;2023-01-29T11:54:30;5.00;74.20
62581;DHT22;48640;48.770;9.148;2023-01-29T11:56:58;5.10;73.20
62581;DHT22;48640;48.770;9.148;2023-01-29T11:59:32;5.20;73.60
62581;DHT22;48640;48.770;9.148;2023-01-29T12:02:05;5.20;73.20
62581;DHT22;48640;48.770;9.148;2023-01-29T12:04:38;5.20;73.40
62581;DHT22;48640;48.770;9.148;2023-01-29T12:07:11;5.10;73.00
62581;DHT22;48640;48.770;9.148;2023-01-29T12:09:39;5.00;73.40
62581;DHT22;48640;48.770;9.148;2023-01-29T12:12:28;4.90;74.20
62581;DHT22;48640;48.770;9.148;2023-01-29T12:15:09;4.70;74.70
62581;DHT22;48640;48.770;9.148;2023-01-29T12:17:42;4.50;74.60
62581;DHT22;48640;48.770;9.148;2023-01-29T12:20:13;4.50;75.50
62581;DHT22;48640;48.770;9.148;2023-01-29T12:22:46;4.40;75.60
62581;DHT22;48640;48.770;9.148;2023-01-29T12:25:20;4.20;75.40
62581;DHT22;48640;48.770;9.148;2023-01-29T12:27:53;4.20;76.70
62581;DHT22;48640;48.770;9.148;2023-01-29T12:30:28;4.20;76.30
62581;DHT22;48640;48.770;9.148;2023-01-29T12:33:01;4.30;76.30
62581;DHT22;48640;48.770;9.148;2023-01-29T12:35:31;4.40;76.10
62581;DHT22;48640;48.770;9.148;2023-01-29T12:38:02;4.00;76.10
62581;DHT22;48640;48.770;9.148;2023-01-29T12:40:33;3.90;77.90
62581;DHT22;48640;48.770;9.148;2023-01-29T12:43:10;3.90;78.30
62581;DHT22;48640;48.770;9.148;2023-01-29T12:45:41;4.00;77.80
62581;DHT22;48640;48.770;9.148;2023-01-29T12:48:12;4.10;78.40
62581;DHT22;48640;48.770;9.148;2023-01-29T12:50:40;3.90;78.40
62581;DHT22;48640;48.770;9.148;2023-01-29T12:53:18;3.70;78.50
62581;DHT22;48640;48.770;9.148;2023-01-29T12:55:50;3.70;79.50
62581;DHT22;48640;48.770;9.148;2023-01-29T12:58:22;4.00;79.00
62581;DHT22;48640;48.770;9.148;2023-01-29T13:00:54;4.20;78.60
62581;DHT22;48640;48.770;9.148;2023-01-29T13:03:25;4.40;76.60
62581;DHT22;48640;48.770;9.148;2023-01-29T13:05:55;4.20;77.40
62581;DHT22;48640;48.770;9.148;2023-01-29T13:08:25;4.10;77.90
62581;DHT22;48640;48.770;9.148;2023-01-29T13:10:54;4.20;77.50
62581;DHT22;48640;48.770;9.148;2023-01-29T13:13:27;4.00;78.20
62581;DHT22;48640;48.770;9.148;2023-01-29T13:15:58;4.10;78.50
62581;DHT22;48640;48.770;9.148;2023-01-29T13:18:44;4.20;78.30
62581;DHT22;48640;48.770;9.148;2023-01-29T13:21:14;4.40;77.80
62581;DHT22;48640;48.770;9.148;2023-01-29T13:23:44;4.50;77.10
62581;DHT22;48640;48.770;9.148;2023-01-29T13:26:12;4.50;77.10
62581;DHT22;48640;48.770;9.148;2023-01-29T13:28:39;4.40;77.80
62581;DHT22;48640;48.770;9.148;2023-01-29T13:31:12;4.40;78.00
62581;DHT22;48640;48.770;9.148;2023-01-29T13:33:43;4.50;77.40
62581;DHT22;48640;48.770;9.148;2023-01-29T13:36:21;4.60;77.50
62581;DHT22;48640;48.770;9.148;2023-01-29T13:38:54;4.60;76.80
62581;DHT22;48640;48.770;9.148;2023-01-29T13:41:34;4.50;77.10
62581;DHT22;48640;48.770;9.148;2023-01-29T13:44:04;4.50;77.90
62581;DHT22;48640;48.770;9.148;2023-01-29T13:46:39;4.60;77.10
62581;DHT22;48640;48.770;9.148;2023-01-29T13:49:25;4.80;76.00
62581;DHT22;48640;48.770;9.148;2023-01-29T13:51:53;4.90;75.70
62581;DHT22;48640;48.770;9.148;2023-01-29T13:54:24;4.80;75.50
62581;DHT22;48640;48.770;9.148;2023-01-29T13:56:59;5.00;75.70
62581;DHT22;48640;48.770;9.148;2023-01-29T13:59:48;5.00;74.20
62581;DHT22;48640;48.770;9.148;2023-01-29T14:02:22;5.00;74.10
62581;DHT22;48640;48.770;9.148;2023-01-29T14:04:49;4.90;73.00
62581;DHT22;48640;48.770;9.148;2023-01-29T14:07:42;5.00;74.00
62581;DHT22;48640;48.770;9.148;2023-01-29T14:10:16;5.00;74.60
62581;DHT22;48640;48.770;9.148;2023-01-29T14:12:48;4.90;75.10
62581;DHT22;48640;48.770;9.148;2023-01-29T14:15:31;5.00;74.30
62581;DHT22;48640;48.770;9.148;2023-01-29T14:18:14;4.80;74.40
62581;DHT22;48640;48.770;9.148;2023-01-29T14:20:51;4.80;73.70
62581;DHT22;48640;48.770;9.148;2023-01-29T14:23:33;4.70;73.80
62581;DHT22;48640;48.770;9.148;2023-01-29T14:26:03;4.70;74.40
62581;DHT22;48640;48.770;9.148;2023-01-29T14:28:32;4.60;74.90
62581;DHT22;48640;48.770;9.148;2023-01-29T14:31:00;4.60;75.70
62581;DHT22;48640;48.770;9.148;2023-01-29T14:33:34;4.70;75.40
62581;DHT22;48640;48.770;9.148;2023-01-29T14:36:04;4.60;75.60
62581;DHT22;48640;48.770;9.148;2023-01-29T14:38:32;4.60;75.80
62581;DHT22;48640;48.770;9.148;2023-01-29T14:41:15;4.60;75.90
62581;DHT22;48640;48.770;9.148;2023-01-29T14:43:46;4.60;75.70
62581;DHT22;48640;48.770;9.148;2023-01-29T14:46:42;4.50;75.00
62581;DHT22;48640;48.770;9.148;2023-01-29T14:49:10;4.30;75.50
62581;DHT22;48640;48.770;9.148;2023-01-29T14:51:40;4.10;76.20
62581;DHT22;48640;48.770;9.148;2023-01-29T14:54:19;4.00;77.00
62581;DHT22;48640;48.770;9.148;2023-01-29T14:56:55;3.90;77.60
62581;DHT22;48640;48.770;9.148;2023-01-29T14:59:28;3.80;78.40
62581;DHT22;48640;48.770;9.148;2023-01-29T15:01:59;3.80;78.50
62581;DHT22;48640;48.770;9.148;2023-01-29T15:04:34;3.70;78.70
62581;DHT22;48640;48.770;9.148;2023-01-29T15:07:11;3.60;79.30
62581;DHT22;48640;48.770;9.148;2023-01-29T15:09:45;3.70;79.40
62581;DHT22;48640;48.770;9.148;2023-01-29T15:12:17;3.70;79.50
62581;DHT22;48640;48.770;9.148;2023-01-29T15:14:50;3.60;79.30
62581;DHT22;48640;48.770;9.148;2023-01-29T15:17:25;3.60;80.00
62581;DHT22;48640;48.770;9.148;2023-01-29T15:19:54;3.60;80.50
62581;DHT22;48640;48.770;9.148;2023-01-29T15:22:23;3.60;80.70
62581;DHT22;48640;48.770;9.148;2023-01-29T15:25:02;3.60;81.00
62581;DHT22;48640;48.770;9.148;2023-01-29T15:27:30;3.60;81.00
62581;DHT22;48640;48.770;9.148;2023-01-29T15:30:00;3.60;81.10
62581;DHT22;48640;48.770;9.148;2023-01-29T15:32:31;3.60;81.30
62581;DHT22;48640;48.770;9.148;2023-01-29T15:35:06;3.70;80.80
62581;DHT22;48640;48.770;9.148;2023-01-29T15:37:34;3.60;81.00
62581;DHT22;48640;48.770;9.148;2023-01-29T15:40:02;3.50;81.40
62581;DHT22;48640;48.770;9.148;2023-01-29T15:42:41;3.50;81.70
62581;DHT22;48640;48.770;9.148;2023-01-29T15:45:23;3.40;82.10
62581;DHT22;48640;48.770;9.148;2023-01-29T15:47:53;3.30;82.60
62581;DHT22;48640;48.770;9.148;2023-01-29T15:50:22;3.30;82.70
62581;DHT22;48640;48.770;9.148;2023-01-29T15:52:50;3.30;83.80
62581;DHT22;48640;48.770;9.148;2023-01-29T15:55:20;3.30;83.30
62581;DHT22;48640;48.770;9.148;2023-01-29T15:57:48;3.20;83.20
62581;DHT22;48640;48.770;9.148;2023-01-29T16:00:21;3.20;84.10
62581;DHT22;48640;48.770;9.148;2023-01-29T16:02:49;3.10;84.30
62581;DHT22;48640;48.770;9.148;2023-01-29T16:05:18;3.00;84.60
62581;DHT22;48640;48.770;9.148;2023-01-29T16:07:48;3.00;84.90
62581;DHT22;48640;48.770;9.148;2023-01-29T16:10:18;2.90;85.10
62581;DHT22;48640;48.770;9.148;2023-01-29T16:12:46;3.00;85.40
62581;DHT22;48640;48.770;9.148;2023-01-29T16:15:22;2.80;85.50